Wetterstation Vordersexau
Wetterdaten: Woche 13.06.11 - 19.06.11 (KW24)
Datum Zeit Temp. A. Feuchte A. Luftdruck Regen Wind Richtung Taupunkt Windchill Windben
13.06.2011 00:00 14,6 C 78 % 1015,2 hPa 0,0 l/m 0,0 km/h NO 10,8 C 14,6 C 0,0 km/h
13.06.2011 01:00 14,4 C 79 % 1015,0 hPa 0,0 l/m 0,0 km/h O 10,8 C 14,4 C 0,0 km/h
13.06.2011 02:00 14,1 C 82 % 1015,5 hPa 0,0 l/m 0,0 km/h O-NO 11,1 C 14,1 C 0,0 km/h
13.06.2011 03:00 13,8 C 84 % 1016,4 hPa 0,0 l/m 0,0 km/h SO 11,1 C 13,8 C 0,0 km/h
13.06.2011 04:00 13,3 C 85 % 1016,1 hPa 0,4 l/m 0,0 km/h NO 10,8 C 13,3 C 0,0 km/h
13.06.2011 05:00 13,0 C 86 % 1016,0 hPa 0,4 l/m 0,0 km/h NO 10,7 C 13,0 C 0,0 km/h
13.06.2011 06:00 13,2 C 86 % 1015,8 hPa 0,0 l/m 0,0 km/h SO 10,9 C 13,2 C 0,0 km/h
13.06.2011 07:00 13,9 C 86 % 1016,2 hPa 0,0 l/m 0,0 km/h SO 11,6 C 13,9 C 0,0 km/h
13.06.2011 08:00 15,8 C 84 % 1016,6 hPa 0,0 l/m 0,0 km/h S-SO 13,1 C 15,8 C 0,0 km/h
13.06.2011 09:00 17,6 C 78 % 1016,8 hPa 0,0 l/m 0,0 km/h W-NW 13,7 C 17,6 C 0,0 km/h
13.06.2011 10:00 23,3 C 60 % 1016,7 hPa 0,0 l/m 0,0 km/h W-NW 15,1 C 23,3 C 0,0 km/h
13.06.2011 11:00 18,9 C 66 % 1016,7 hPa 0,0 l/m 0,6 km/h S 12,4 C 18,9 C 0,4 km/h
13.06.2011 12:00 19,4 C 64 % 1016,6 hPa 0,0 l/m 7,1 km/h W 12,4 C 19,1 C 4,0 km/h
13.06.2011 13:00 20,1 C 61 % 1016,2 hPa 0,0 l/m 0,0 km/h SO 12,3 C 20,1 C 0,0 km/h
13.06.2011 14:00 21,8 C 57 % 1016,0 hPa 0,0 l/m 0,0 km/h SO 12,9 C 21,8 C 0,0 km/h
13.06.2011 15:00 19,2 C 65 % 1016,0 hPa 0,0 l/m 1,9 km/h N 12,5 C 19,2 C 1,1 km/h
13.06.2011 16:00 28,3 C 43 % 1015,8 hPa 0,0 l/m 7,1 km/h SW 14,5 C 28,2 C 4,0 km/h
13.06.2011 17:00 24,0 C 49 % 1015,5 hPa 0,0 l/m 0,0 km/h W-NW 12,6 C 24,0 C 0,0 km/h
13.06.2011 18:00 24,7 C 48 % 1015,5 hPa 0,0 l/m 3,9 km/h W 12,9 C 24,7 C 2,2 km/h
13.06.2011 19:00 23,8 C 49 % 1015,7 hPa 0,0 l/m 0,0 km/h W 12,4 C 23,8 C 0,0 km/h
13.06.2011 20:00 19,5 C 66 % 1015,8 hPa 0,0 l/m 0,0 km/h SO 13,0 C 19,5 C 0,0 km/h
13.06.2011 21:00 17,0 C 74 % 1015,9 hPa 0,0 l/m 0,0 km/h SO 12,3 C 17,0 C 0,0 km/h
13.06.2011 22:00 15,9 C 78 % 1016,6 hPa 0,0 l/m 0,0 km/h SO 12,1 C 15,9 C 0,0 km/h
13.06.2011 23:00 14,5 C 81 % 1016,7 hPa 0,0 l/m 0,0 km/h O-NO 11,3 C 14,5 C 0,0 km/h
14.06.2011 00:00 13,4 C 83 % 1016,6 hPa 0,0 l/m 0,0 km/h O-NO 10,6 C 13,4 C 0,0 km/h
14.06.2011 01:00 12,9 C 85 % 1016,7 hPa 0,0 l/m 0,0 km/h SO 10,4 C 12,9 C 0,0 km/h
14.06.2011 02:00 13,7 C 84 % 1016,7 hPa 0,0 l/m 2,6 km/h SO 11,0 C 13,7 C 1,4 km/h
14.06.2011 03:00 13,9 C 84 % 1016,6 hPa 0,0 l/m 7,8 km/h S-SO 11,2 C 13,1 C 4,3 km/h
14.06.2011 04:00 14,1 C 84 % 1016,6 hPa 0,0 l/m 0,0 km/h O 11,4 C 14,1 C 0,0 km/h
14.06.2011 05:00 14,1 C 83 % 1017,0 hPa 0,0 l/m 0,0 km/h SO 11,3 C 14,1 C 0,0 km/h
14.06.2011 06:00 13,9 C 84 % 1016,9 hPa 0,0 l/m 0,0 km/h O-SO 11,2 C 13,9 C 0,0 km/h
14.06.2011 07:00 15,8 C 82 % 1016,9 hPa 0,0 l/m 0,0 km/h S-SO 12,7 C 15,8 C 0,0 km/h
14.06.2011 08:00 20,1 C 72 % 1017,1 hPa 0,0 l/m 9,1 km/h SO 14,9 C 19,1 C 5,0 km/h
14.06.2011 09:00 22,9 C 64 % 1017,5 hPa 0,0 l/m 2,6 km/h W-NW 15,7 C 22,9 C 1,4 km/h
14.06.2011 10:00 27,4 C 50 % 1017,2 hPa 0,0 l/m 0,6 km/h W-NW 16,0 C 27,4 C 0,4 km/h
14.06.2011 11:00 29,1 C 45 % 1017,1 hPa 0,0 l/m 0,0 km/h N 15,9 C 29,1 C 0,0 km/h
14.06.2011 12:00 27,9 C 46 % 1016,7 hPa 0,0 l/m 7,1 km/h W 15,2 C 27,8 C 4,0 km/h
14.06.2011 13:00 26,4 C 48 % 1016,6 hPa 0,0 l/m 0,0 km/h W 14,5 C 26,4 C 0,0 km/h
14.06.2011 14:00 23,6 C 55 % 1016,6 hPa 0,0 l/m 11,7 km/h W 14,0 C 22,2 C 6,5 km/h
14.06.2011 15:00 28,8 C 44 % 1016,3 hPa 0,0 l/m 6,5 km/h NO 15,3 C 28,8 C 3,6 km/h
14.06.2011 16:00 31,6 C 40 % 1016,0 hPa 0,0 l/m 12,3 km/h N-NO 16,3 C 31,4 C 6,8 km/h
14.06.2011 17:00 25,4 C 56 % 1016,3 hPa 0,0 l/m 0,0 km/h W-NW 16,0 C 25,4 C 0,0 km/h
14.06.2011 18:00 26,4 C 53 % 1016,5 hPa 0,0 l/m 0,0 km/h N-NO 16,0 C 26,4 C 0,0 km/h
14.06.2011 19:00 23,5 C 57 % 1016,4 hPa 0,0 l/m 0,0 km/h W 14,5 C 23,5 C 0,0 km/h
14.06.2011 20:00 22,4 C 62 % 1016,7 hPa 0,0 l/m 0,0 km/h S 14,8 C 22,4 C 0,0 km/h
14.06.2011 21:00 18,9 C 73 % 1017,1 hPa 0,0 l/m 0,0 km/h N 13,9 C 18,9 C 0,0 km/h
14.06.2011 22:00 18,1 C 78 % 1017,9 hPa 0,0 l/m 0,0 km/h SO 14,2 C 18,1 C 0,0 km/h
14.06.2011 23:00 17,1 C 84 % 1017,9 hPa 0,0 l/m 3,2 km/h O-NO 14,4 C 17,1 C 1,8 km/h
15.06.2011 00:00 16,2 C 85 % 1017,5 hPa 0,0 l/m 0,0 km/h O-NO 13,7 C 16,2 C 0,0 km/h
15.06.2011 01:00 14,8 C 86 % 1017,4 hPa 0,0 l/m 0,0 km/h O-SO 12,5 C 14,8 C 0,0 km/h
15.06.2011 02:00 13,9 C 86 % 1017,3 hPa 0,0 l/m 0,0 km/h N-NO 11,6 C 13,9 C 0,0 km/h
15.06.2011 03:00 13,8 C 86 % 1017,1 hPa 0,4 l/m 0,0 km/h NO 11,5 C 13,8 C 0,0 km/h
15.06.2011 04:00 13,1 C 86 % 1017,3 hPa 0,0 l/m 0,0 km/h O-SO 10,8 C 13,1 C 0,0 km/h
15.06.2011 05:00 12,5 C 86 % 1017,2 hPa 0,0 l/m 0,0 km/h NO 10,2 C 12,5 C 0,0 km/h
15.06.2011 06:00 13,3 C 85 % 1017,3 hPa 0,0 l/m 0,0 km/h SO 10,8 C 13,3 C 0,0 km/h
15.06.2011 07:00 14,8 C 85 % 1017,3 hPa 0,0 l/m 3,2 km/h SO 12,3 C 14,8 C 1,8 km/h
15.06.2011 08:00 24,9 C 67 % 1017,2 hPa 0,0 l/m 0,0 km/h N-NW 18,3 C 24,9 C 0,0 km/h
15.06.2011 09:00 27,8 C 54 % 1017,4 hPa 0,0 l/m 1,9 km/h W-NW 17,6 C 27,8 C 1,1 km/h
15.06.2011 10:00 24,8 C 62 % 1017,2 hPa 0,0 l/m 1,3 km/h N-NO 17,0 C 24,8 C 0,7 km/h
15.06.2011 11:00 29,9 C 48 % 1016,7 hPa 0,0 l/m 0,0 km/h N-NO 17,7 C 29,9 C 0,0 km/h
15.06.2011 12:00 28,3 C 50 % 1016,6 hPa 0,0 l/m 0,0 km/h NO 16,9 C 28,3 C 0,0 km/h
15.06.2011 13:00 29,1 C 48 % 1016,2 hPa 0,0 l/m 2,6 km/h W 16,9 C 29,1 C 1,4 km/h
15.06.2011 14:00 29,6 C 45 % 1015,6 hPa 0,0 l/m 2,6 km/h NO 16,4 C 29,6 C 1,4 km/h
15.06.2011 15:00 31,3 C 44 % 1015,3 hPa 0,0 l/m 0,0 km/h N-NO 17,6 C 31,3 C 0,0 km/h
15.06.2011 16:00 32,4 C 41 % 1015,2 hPa 0,0 l/m 2,6 km/h W 17,4 C 32,4 C 1,4 km/h
15.06.2011 17:00 32,4 C 39 % 1014,7 hPa 0,0 l/m 0,0 km/h N-NW 16,6 C 32,4 C 0,0 km/h
15.06.2011 18:00 30,1 C 41 % 1014,8 hPa 0,0 l/m 2,6 km/h W-NW 15,4 C 30,1 C 1,4 km/h
15.06.2011 19:00 27,1 C 46 % 1014,7 hPa 0,0 l/m 0,0 km/h N-NW 14,5 C 27,1 C 0,0 km/h
15.06.2011 20:00 23,8 C 64 % 1014,7 hPa 0,0 l/m 0,0 km/h O-NO 16,6 C 23,8 C 0,0 km/h
15.06.2011 21:00 20,6 C 68 % 1014,8 hPa 0,0 l/m 0,0 km/h O-SO 14,5 C 20,6 C 0,0 km/h
15.06.2011 22:00 17,9 C 76 % 1015,3 hPa 0,0 l/m 0,0 km/h O-NO 13,6 C 17,9 C 0,0 km/h
15.06.2011 23:00 17,4 C 79 % 1015,1 hPa 0,0 l/m 0,0 km/h O-NO 13,7 C 17,4 C 0,0 km/h
16.06.2011 00:00 16,1 C 81 % 1015,2 hPa 0,0 l/m 0,0 km/h NO 12,8 C 16,1 C 0,0 km/h
16.06.2011 01:00 15,1 C 83 % 1015,3 hPa 0,0 l/m 0,0 km/h SO 12,2 C 15,1 C 0,0 km/h
16.06.2011 02:00 14,4 C 85 % 1014,9 hPa 0,0 l/m 0,0 km/h SO 11,9 C 14,4 C 0,0 km/h
16.06.2011 03:00 13,6 C 85 % 1014,8 hPa 0,0 l/m 3,2 km/h NO 11,1 C 13,6 C 1,8 km/h
16.06.2011 04:00 13,8 C 86 % 1014,4 hPa 0,0 l/m 0,0 km/h S-SO 11,5 C 13,8 C 0,0 km/h
16.06.2011 05:00 13,3 C 86 % 1014,2 hPa 0,0 l/m 0,0 km/h S-SO 11,0 C 13,3 C 0,0 km/h
16.06.2011 06:00 14,3 C 86 % 1014,1 hPa 0,0 l/m 0,0 km/h SO 12,0 C 14,3 C 0,0 km/h
16.06.2011 07:00 16,8 C 82 % 1014,0 hPa 0,0 l/m 0,0 km/h NO 13,7 C 16,8 C 0,0 km/h
16.06.2011 08:00 23,3 C 64 % 1013,9 hPa 0,0 l/m 0,0 km/h SO 16,1 C 23,3 C 0,0 km/h
16.06.2011 09:00 29,1 C 52 % 1013,2 hPa 0,0 l/m 0,0 km/h SW 18,2 C 29,1 C 0,0 km/h
16.06.2011 10:00 29,5 C 43 % 1012,9 hPa 0,0 l/m 0,0 km/h W-NW 15,6 C 29,5 C 0,0 km/h
16.06.2011 11:00 30,4 C 38 % 1012,5 hPa 0,0 l/m 8,4 km/h W-SW 14,5 C 30,2 C 4,7 km/h
16.06.2011 12:00 30,6 C 36 % 1012,1 hPa 0,0 l/m 21,4 km/h W-NW 13,8 C 29,9 C 11,9 km/h
16.06.2011 13:00 31,1 C 36 % 1011,2 hPa 0,0 l/m 13,0 km/h W-NW 14,2 C 30,8 C 7,2 km/h
16.06.2011 14:00 28,6 C 40 % 1010,7 hPa 0,0 l/m 5,2 km/h W-NW 13,7 C 28,6 C 2,9 km/h
16.06.2011 15:00 29,3 C 42 % 1010,3 hPa 0,0 l/m 11,0 km/h W-SW 15,0 C 28,8 C 6,1 km/h
16.06.2011 16:00 18,6 C 82 % 1014,0 hPa 2,5 l/m 24,6 km/h N-NO 15,5 C 13,6 C 13,7 km/h
16.06.2011 17:00 17,8 C 82 % 1013,6 hPa 7,8 l/m 0,0 km/h N-NW 14,7 C 17,8 C 0,0 km/h
16.06.2011 18:00 16,2 C 85 % 1014,4 hPa 3,6 l/m 0,0 km/h SO 13,7 C 16,2 C 0,0 km/h
16.06.2011 19:00 16,1 C 85 % 1014,3 hPa 1,4 l/m 6,5 km/h W-SW 13,6 C 16,1 C 3,6 km/h
16.06.2011 20:00 15,8 C 85 % 1015,1 hPa 0,0 l/m 20,7 km/h S 13,3 C 10,6 C 11,5 km/h
16.06.2011 21:00 15,2 C 83 % 1015,6 hPa 0,0 l/m 7,1 km/h S-SW 12,3 C 14,8 C 4,0 km/h
16.06.2011 22:00 14,6 C 85 % 1015,9 hPa 0,0 l/m 25,3 km/h NO 12,1 C 8,0 C 14,0 km/h
16.06.2011 23:00 13,2 C 86 % 1016,0 hPa 0,0 l/m 1,3 km/h NO 10,9 C 13,2 C 0,7 km/h
17.06.2011 00:00 13,6 C 86 % 1016,1 hPa 0,0 l/m 0,0 km/h N-NO 11,3 C 13,6 C 0,0 km/h
17.06.2011 01:00 13,6 C 86 % 1015,9 hPa 0,0 l/m 0,0 km/h S 11,3 C 13,6 C 0,0 km/h
17.06.2011 02:00 14,4 C 86 % 1015,9 hPa 0,0 l/m 3,2 km/h N-NO 12,1 C 14,4 C 1,8 km/h
17.06.2011 03:00 14,4 C 86 % 1016,1 hPa 0,0 l/m 0,0 km/h O-SO 12,1 C 14,4 C 0,0 km/h
17.06.2011 04:00 14,0 C 86 % 1016,3 hPa 0,0 l/m 0,0 km/h O-NO 11,7 C 14,0 C 0,0 km/h
17.06.2011 05:00 13,8 C 86 % 1015,9 hPa 0,0 l/m 0,0 km/h O-NO 11,5 C 13,8 C 0,0 km/h
17.06.2011 06:00 13,8 C 86 % 1015,4 hPa 0,0 l/m 0,0 km/h O-SO 11,5 C 13,8 C 0,0 km/h
17.06.2011 07:00 15,3 C 87 % 1015,2 hPa 0,0 l/m 0,0 km/h SO 13,1 C 15,3 C 0,0 km/h
17.06.2011 08:00 22,5 C 69 % 1015,1 hPa 0,0 l/m 0,0 km/h W-NW 16,5 C 22,5 C 0,0 km/h
17.06.2011 09:00 25,4 C 55 % 1014,4 hPa 0,0 l/m 0,0 km/h O-SO 15,7 C 25,4 C 0,0 km/h
17.06.2011 10:00 26,1 C 55 % 1013,8 hPa 0,0 l/m 0,0 km/h SW 16,3 C 26,1 C 0,0 km/h
17.06.2011 11:00 27,4 C 48 % 1013,3 hPa 0,0 l/m 0,0 km/h NW 15,4 C 27,4 C 0,0 km/h
17.06.2011 12:00 25,1 C 52 % 1012,6 hPa 0,0 l/m 2,6 km/h W 14,5 C 25,1 C 1,4 km/h
17.06.2011 13:00 27,0 C 49 % 1011,6 hPa 0,0 l/m 11,0 km/h W-NW 15,4 C 26,2 C 6,1 km/h
17.06.2011 14:00 28,3 C 46 % 1010,1 hPa 0,0 l/m 10,4 km/h W-SW 15,6 C 27,8 C 5,8 km/h
17.06.2011 15:00 28,4 C 45 % 1009,1 hPa 0,0 l/m 0,0 km/h NW 15,3 C 28,4 C 0,0 km/h
17.06.2011 16:00 29,0 C 44 % 1008,4 hPa 0,0 l/m 7,8 km/h W 15,5 C 28,8 C 4,3 km/h
17.06.2011 17:00 24,8 C 54 % 1007,5 hPa 0,0 l/m 0,0 km/h SO 14,8 C 24,8 C 0,0 km/h
17.06.2011 18:00 22,9 C 66 % 1006,8 hPa 0,0 l/m 0,0 km/h SO 16,2 C 22,9 C 0,0 km/h
17.06.2011 19:00 21,1 C 71 % 1006,6 hPa 0,0 l/m 0,0 km/h S 15,6 C 21,1 C 0,0 km/h
17.06.2011 20:00 17,9 C 84 % 1007,8 hPa 2,1 l/m 25,9 km/h NO 15,2 C 12,4 C 14,4 km/h
17.06.2011 21:00 17,6 C 84 % 1006,5 hPa 0,7 l/m 0,0 km/h N-NO 14,9 C 17,6 C 0,0 km/h
17.06.2011 22:00 17,1 C 85 % 1005,8 hPa 0,0 l/m 0,0 km/h N-NO 14,6 C 17,1 C 0,0 km/h
17.06.2011 23:00 15,9 C 85 % 1008,1 hPa 8,2 l/m 6,5 km/h SO 13,4 C 15,9 C 3,6 km/h
18.06.2011 00:00 15,1 C 85 % 1009,1 hPa 3,9 l/m 0,0 km/h NO 12,6 C 15,1 C 0,0 km/h
18.06.2011 01:00 14,9 C 85 % 1007,4 hPa 1,1 l/m 0,0 km/h SW 12,4 C 14,9 C 0,0 km/h
18.06.2011 02:00 16,5 C 85 % 1007,8 hPa 0,0 l/m 24,0 km/h W-SW 14,0 C 10,8 C 13,3 km/h
18.06.2011 03:00 16,7 C 83 % 1007,7 hPa 0,0 l/m 2,6 km/h W-SW 13,8 C 16,7 C 1,4 km/h
18.06.2011 04:00 16,4 C 81 % 1007,5 hPa 0,0 l/m 20,1 km/h S 13,1 C 11,5 C 11,2 km/h
18.06.2011 05:00 16,2 C 79 % 1007,4 hPa 0,0 l/m 8,4 km/h S 12,6 C 15,2 C 4,7 km/h
18.06.2011 06:00 15,9 C 76 % 1007,8 hPa 0,0 l/m 24,0 km/h S-SW 11,7 C 10,0 C 13,3 km/h
18.06.2011 07:00 16,1 C 74 % 1007,9 hPa 0,0 l/m 21,4 km/h S-SW 11,5 C 10,8 C 11,9 km/h
18.06.2011 08:00 15,6 C 73 % 1008,5 hPa 0,0 l/m 11,7 km/h S-SW 10,8 C 13,1 C 6,5 km/h
18.06.2011 09:00 16,0 C 69 % 1008,3 hPa 0,0 l/m 14,9 km/h SW 10,3 C 12,4 C 8,3 km/h
18.06.2011 10:00 14,9 C 72 % 1008,6 hPa 0,0 l/m 22,0 km/h W 9,9 C 9,1 C 12,2 km/h
18.06.2011 11:00 18,6 C 58 % 1008,8 hPa 0,0 l/m 35,0 km/h W-SW 10,2 C 12,1 C 19,4 km/h
18.06.2011 12:00 17,1 C 60 % 1009,3 hPa 0,0 l/m 22,0 km/h W-SW 9,3 C 12,0 C 12,2 km/h
18.06.2011 13:00 18,5 C 54 % 1009,5 hPa 0,0 l/m 17,5 km/h W-SW 9,0 C 14,8 C 9,7 km/h
18.06.2011 14:00 19,7 C 50 % 1009,5 hPa 0,0 l/m 25,9 km/h W-SW 9,0 C 14,8 C 14,4 km/h
18.06.2011 15:00 18,8 C 54 % 1009,4 hPa 0,0 l/m 9,7 km/h W-NW 9,3 C 17,4 C 5,4 km/h
18.06.2011 16:00 17,9 C 56 % 1009,6 hPa 0,0 l/m 15,6 km/h W-SW 9,0 C 14,5 C 8,6 km/h
18.06.2011 17:00 21,9 C 55 % 1009,1 hPa 0,0 l/m 21,4 km/h W-SW 12,4 C 18,4 C 11,9 km/h
18.06.2011 18:00 22,4 C 49 % 1008,9 hPa 0,0 l/m 5,2 km/h W 11,2 C 22,4 C 2,9 km/h
18.06.2011 19:00 19,8 C 50 % 1009,1 hPa 0,0 l/m 20,7 km/h W-SW 9,1 C 15,8 C 11,5 km/h
18.06.2011 20:00 17,3 C 56 % 1009,6 hPa 0,0 l/m 20,1 km/h N-NO 8,4 C 12,7 C 11,2 km/h
18.06.2011 21:00 15,1 C 63 % 1010,1 hPa 0,0 l/m 2,6 km/h SO 8,1 C 15,1 C 1,4 km/h
18.06.2011 22:00 11,0 C 82 % 1011,6 hPa 2,8 l/m 0,0 km/h O-SO 8,0 C 11,0 C 0,0 km/h
18.06.2011 23:00 10,6 C 85 % 1011,6 hPa 0,0 l/m 0,0 km/h N-NW 8,2 C 10,6 C 0,0 km/h
19.06.2011 00:00 11,0 C 86 % 1012,4 hPa 0,0 l/m 0,0 km/h SO 8,7 C 11,0 C 0,0 km/h
19.06.2011 01:00 10,7 C 86 % 1012,4 hPa 0,0 l/m 0,0 km/h W-NW 8,5 C 10,7 C 0,0 km/h
19.06.2011 02:00 11,0 C 86 % 1012,8 hPa 0,0 l/m 18,8 km/h S 8,7 C 5,0 C 10,4 km/h
19.06.2011 03:00 10,9 C 86 % 1012,6 hPa 0,4 l/m 6,5 km/h O-NO 8,7 C 10,9 C 3,6 km/h
19.06.2011 04:00 10,6 C 86 % 1012,4 hPa 0,0 l/m 0,0 km/h SW 8,4 C 10,6 C 0,0 km/h
19.06.2011 05:00 11,4 C 86 % 1012,0 hPa 0,0 l/m 0,0 km/h W 9,1 C 11,4 C 0,0 km/h
19.06.2011 06:00 11,6 C 84 % 1011,9 hPa 0,0 l/m 12,3 km/h W 9,0 C 8,2 C 6,8 km/h
19.06.2011 07:00 11,5 C 85 % 1012,3 hPa 0,4 l/m 1,9 km/h NW 9,1 C 11,5 C 1,1 km/h
19.06.2011 08:00 11,6 C 86 % 1012,8 hPa 0,4 l/m 1,9 km/h W 9,3 C 11,6 C 1,1 km/h
19.06.2011 09:00 10,4 C 87 % 1014,1 hPa 2,8 l/m 1,9 km/h SO 8,3 C 10,4 C 1,1 km/h
19.06.2011 10:00 11,6 C 85 % 1014,4 hPa 0,4 l/m 0,0 km/h S-SW 9,2 C 11,6 C 0,0 km/h
19.06.2011 11:00 13,9 C 82 % 1014,4 hPa 0,0 l/m 0,0 km/h NW 10,9 C 13,9 C 0,0 km/h
19.06.2011 12:00 14,5 C 78 % 1015,1 hPa 0,0 l/m 0,0 km/h W-SW 10,7 C 14,5 C 0,0 km/h
19.06.2011 13:00 18,7 C 63 % 1015,1 hPa 0,0 l/m 24,0 km/h N-NO 11,5 C 13,8 C 13,3 km/h
19.06.2011 14:00 18,9 C 62 % 1014,8 hPa 0,0 l/m 0,0 km/h W-NW 11,5 C 18,9 C 0,0 km/h
19.06.2011 15:00 19,2 C 51 % 1015,5 hPa 0,0 l/m 18,8 km/h N 8,8 C 15,4 C 10,4 km/h
19.06.2011 16:00 20,5 C 45 % 1015,3 hPa 0,0 l/m 12,3 km/h NW 8,2 C 18,5 C 6,8 km/h
19.06.2011 17:00 19,9 C 52 % 1015,7 hPa 0,0 l/m 0,0 km/h W-SW 9,7 C 19,9 C 0,0 km/h
19.06.2011 18:00 17,8 C 52 % 1015,6 hPa 0,0 l/m 20,1 km/h W-SW 7,8 C 13,3 C 11,2 km/h
19.06.2011 19:00 16,9 C 57 % 1016,0 hPa 0,0 l/m 0,0 km/h W-SW 8,3 C 16,9 C 0,0 km/h
19.06.2011 20:00 15,8 C 64 % 1016,2 hPa 0,0 l/m 0,0 km/h NO 9,0 C 15,8 C 0,0 km/h
19.06.2011 21:00 13,9 C 75 % 1016,6 hPa 0,0 l/m 0,0 km/h O-NO 9,5 C 13,9 C 0,0 km/h
19.06.2011 22:00 11,9 C 80 % 1017,3 hPa 0,0 l/m 0,0 km/h NO 8,6 C 11,9 C 0,0 km/h
19.06.2011 23:00 11,2 C 82 % 1017,3 hPa 0,0 l/m 0,0 km/h NO 8,2 C 11,2 C 0,0 km/h
Min-Datum _ 19.06.11 16.06.11 17.06.11 - 13.06.11 - 19.06.11 19.06.11 13.06.11
_ Min-Zeit 09:30 12:30 22:30 - 00:30 - 18:30 02:30 00:30
Minimum _ 10,4 C 36 % 1005,8 hPa - 0,0 km/h - 7,8 C 5,0 C 0,0 km/h
Max-Datum _ 15.06.11 17.06.11 14.06.11 17.06.11 18.06.11 - 15.06.11 15.06.11 18.06.11
_ Max-Zeit 16:30 07:30 22:30 23:30 11:30 - 08:30 16:30 11:30
Maximum _ 32,4 C 87 % 1017,9 hPa 8,2 l/m 35,0 km/h
W-SW
- 18,3 C 32,4 C 19,4 km/h
W-SW
Durchschnitt _ 18,9 C 69 % 1014,0 hPa #39,5 l/m 4,6 km/h SO 12,6 C 18,2 C 2,6 km/h
www.sexauwetter.de